Time;durP1;ratioP1;P1;durP2;ratioP2;P2;SDS_P1;SDS_P2;PMS_P1;PMS_P2;Temp;Humidity;BMP_temperature;BMP_pressure;BME280_temperature;BME280_humidity;BME280_pressure;Samples;Min_cycle;Max_cycle;Signal;HPM_P1;HPM_P2
2022/03/03 00:01:43;;;;;;;;;;;;;;;22.96;19.08;97345.97;5095889;28;974;-72
2022/03/03 00:04:08;;;;;;;;;;;;;;;22.63;19.14;97340.81;5095500;28;1015;-71
2022/03/03 00:06:34;;;;;;;;;;;;;;;22.47;19.23;97349.56;5095570;28;921;-72
2022/03/03 00:08:59;;;;;;;;;;;;;;;22.31;19.70;97345.72;5059748;28;1162;-72
2022/03/03 00:11:24;;;;;;;;;;;;;;;22.55;19.68;97345.22;5095859;28;1989;-72
2022/03/03 00:13:50;;;;;;;;;;;;;;;22.22;19.98;97345.69;5095259;28;1385;-72
2022/03/03 00:16:15;;;;;;;;;;;;;;;22.34;19.48;97335.53;5095534;28;904;-72
2022/03/03 00:18:41;;;;;;;;;;;;;;;22.61;19.16;97344.13;5095257;28;961;-72
2022/03/03 00:21:06;;;;;;;;;;;;;;;22.72;19.24;97332.31;5032821;28;1069;-72
2022/03/03 00:23:32;;;;;;;;;;;;;;;22.45;19.63;97332.25;5032496;28;1122;-72
2022/03/03 00:25:57;;;;;;;;;;;;;;;22.54;19.69;97329.47;5032767;28;1012;-72
2022/03/03 00:28:23;;;;;;;;;;;;;;;22.43;19.65;97326.25;5032751;28;1099;-72
2022/03/03 00:30:49;;;;;;;;;;;;;;;22.93;18.87;97318.53;5032503;28;1987;-72
2022/03/03 00:33:14;;;;;;;;;;;;;;;22.73;19.19;97325.38;5032679;28;1183;-72
2022/03/03 00:35:39;;;;;;;;;;;;;;;22.70;19.13;97317.84;5033000;28;963;-72
2022/03/03 00:38:05;;;;;;;;;;;;;;;22.95;18.88;97321.69;5032827;28;983;-72
2022/03/03 00:40:30;;;;;;;;;;;;;;;22.80;19.23;97321.50;5032639;28;937;-72
2022/03/03 00:42:56;;;;;;;;;;;;;;;22.85;19.03;97330.16;5032895;28;989;-72
2022/03/03 00:45:22;;;;;;;;;;;;;;;22.83;19.22;97338.34;5032892;28;1047;-72
2022/03/03 00:47:48;;;;;;;;;;;;;;;22.79;19.35;97337.69;5032447;28;975;-72
2022/03/03 00:50:13;;;;;;;;;;;;;;;22.93;18.97;97342.00;5032736;28;1067;-72
2022/03/03 00:52:39;;;;;;;;;;;;;;;22.97;18.75;97333.34;5078295;28;1910;-72
2022/03/03 00:55:04;;;;;;;;;;;;;;;22.53;19.59;97336.34;5059463;28;1076;-72
2022/03/03 00:57:30;;;;;;;;;;;;;;;22.71;19.13;97330.75;5095152;28;1039;-72
2022/03/03 00:59:55;;;;;;;;;;;;;;;22.59;19.47;97332.47;5059506;28;1077;-72
2022/03/03 01:02:20;;;;;;;;;;;;;;;22.63;19.26;97330.25;5094953;28;913;-72
2022/03/03 01:04:46;;;;;;;;;;;;;;;22.79;19.29;97329.19;5095314;28;829;-72
2022/03/03 01:07:11;;;;;;;;;;;;;;;22.02;20.21;97322.56;5095151;28;960;-72
2022/03/03 01:09:37;;;;;;;;;;;;;;;22.52;19.62;97323.44;5095002;28;897;-72
2022/03/03 01:12:02;;;;;;;;;;;;;;;22.71;19.34;97319.41;5098298;28;1965;-72
2022/03/03 01:14:28;;;;;;;;;;;;;;;23.30;18.73;97320.13;5098522;28;931;-72
2022/03/03 01:16:53;;;;;;;;;;;;;;;22.79;19.14;97337.69;5098784;28;936;-72
2022/03/03 01:19:19;;;;;;;;;;;;;;;22.91;19.13;97321.06;5098378;28;1010;-72
2022/03/03 01:21:44;;;;;;;;;;;;;;;22.66;19.32;97322.06;5062787;28;1001;-72
2022/03/03 01:24:10;;;;;;;;;;;;;;;22.65;19.22;97320.50;5055500;28;959;-72
2022/03/03 01:26:35;;;;;;;;;;;;;;;23.08;18.85;97314.59;5055587;28;1001;-72
2022/03/03 01:29:01;;;;;;;;;;;;;;;22.96;18.86;97311.94;5055355;28;1064;-72
2022/03/03 01:31:26;;;;;;;;;;;;;;;23.23;19.00;97314.78;5038730;28;1906;-72
2022/03/03 01:33:51;;;;;;;;;;;;;;;22.84;19.21;97313.59;5055613;28;1009;-72
2022/03/03 01:36:18;;;;;;;;;;;;;;;23.00;18.87;97312.53;5055410;28;1120;-72
2022/03/03 01:38:44;;;;;;;;;;;;;;;22.69;19.22;97321.94;5035413;28;1024;-72
2022/03/03 01:41:09;;;;;;;;;;;;;;;22.78;19.35;97316.25;5035506;28;1024;-72
2022/03/03 01:43:34;;;;;;;;;;;;;;;22.57;19.27;97311.50;5035207;28;1001;-72
2022/03/03 01:46:00;;;;;;;;;;;;;;;22.77;19.20;97311.84;5035180;28;1021;-72
2022/03/03 01:48:25;;;;;;;;;;;;;;;22.71;19.41;97308.06;5034872;28;985;-72
2022/03/03 01:50:52;;;;;;;;;;;;;;;23.21;18.63;97310.81;5035154;28;1971;-72
2022/03/03 01:53:18;;;;;;;;;;;;;;;23.13;19.02;97308.31;5035320;28;993;-72
2022/03/03 01:55:43;;;;;;;;;;;;;;;22.51;19.60;97304.88;5035011;28;1033;-72
2022/03/03 01:58:08;;;;;;;;;;;;;;;23.19;18.50;97302.78;5035016;28;992;-72
2022/03/03 02:00:34;;;;;;;;;;;;;;;22.88;18.87;97306.53;5018425;28;1018;-72
2022/03/03 02:03:00;;;;;;;;;;;;;;;22.34;19.79;97307.97;4995428;28;973;-72
2022/03/03 02:05:26;;;;;;;;;;;;;;;22.31;19.67;97311.72;4975877;28;1118;-72
2022/03/03 02:07:52;;;;;;;;;;;;;;;22.51;19.27;97316.19;4975968;28;1036;-72
2022/03/03 02:10:17;;;;;;;;;;;;;;;22.51;19.53;97316.19;4975910;28;1060;-72
2022/03/03 02:12:43;;;;;;;;;;;;;;;22.41;19.71;97320.25;4975882;28;1989;-72
2022/03/03 02:15:14;;;;;;;;;;;;;;;22.34;19.47;97319.31;4978991;28;963;-72
2022/03/03 02:17:40;;;;;;;;;;;;;;;22.27;19.43;97319.56;4998715;28;1026;-72
2022/03/03 02:20:06;;;;;;;;;;;;;;;21.89;20.31;97310.56;5015019;28;998;-72
2022/03/03 02:22:35;;;;;;;;;;;;;;;22.11;19.92;97314.16;5014169;28;1037;-72
2022/03/03 02:25:00;;;;;;;;;;;;;;;22.21;19.58;97314.97;4994923;28;997;-72
2022/03/03 02:27:25;;;;;;;;;;;;;;;22.61;19.33;97317.81;4979702;28;1019;-72
2022/03/03 02:29:51;;;;;;;;;;;;;;;22.78;18.90;97319.09;4936700;29;975;-72
2022/03/03 02:32:16;;;;;;;;;;;;;;;22.39;19.38;97314.28;4880256;29;1914;-72
2022/03/03 02:34:46;;;;;;;;;;;;;;;21.96;19.86;97321.59;4910287;29;1009;-72
2022/03/03 02:37:11;;;;;;;;;;;;;;;22.24;19.82;97329.03;4914036;29;1071;-72
2022/03/03 02:39:37;;;;;;;;;;;;;;;22.76;18.91;97321.63;4917977;29;987;-72
2022/03/03 02:42:02;;;;;;;;;;;;;;;23.11;18.52;97321.41;4918046;29;964;-72
2022/03/03 02:44:28;;;;;;;;;;;;;;;21.89;20.01;97327.53;4898932;29;1136;-72
2022/03/03 02:46:53;;;;;;;;;;;;;;;22.08;19.79;97317.91;4898967;29;1139;-72
2022/03/03 02:49:18;;;;;;;;;;;;;;;22.36;19.60;97325.28;4899013;29;1005;-72
2022/03/03 02:51:44;;;;;;;;;;;;;;;22.15;19.80;97306.31;4898936;29;1984;-72
2022/03/03 02:54:09;;;;;;;;;;;;;;;22.25;19.55;97316.44;4883560;29;931;-72
2022/03/03 02:57:53;;;;;;;;;;;;;;;22.95;18.80;97311.16;4898663;29;1046;-72
2022/03/03 02:59:20;;;;;;;;;;;;;;;22.68;18.83;97314.66;4861848;29;932;-72
2022/03/03 03:01:46;;;;;;;;;;;;;;;22.60;19.00;97319.06;4910613;29;1008;-72
2022/03/03 03:04:11;;;;;;;;;;;;;;;22.01;19.56;97318.16;4917723;29;1041;-72
2022/03/03 03:06:36;;;;;;;;;;;;;;;22.24;19.43;97305.56;4917649;29;1103;-72
2022/03/03 03:09:02;;;;;;;;;;;;;;;22.51;18.90;97317.00;4974620;28;1024;-72
2022/03/03 03:11:27;;;;;;;;;;;;;;;22.60;19.23;97314.19;5013904;28;1902;-72
2022/03/03 03:13:53;;;;;;;;;;;;;;;22.55;18.90;97314.00;5014031;28;1003;-72
2022/03/03 03:16:18;;;;;;;;;;;;;;;22.50;19.25;97309.75;5013694;28;1047;-72
2022/03/03 03:18:43;;;;;;;;;;;;;;;22.97;18.74;97305.00;5013925;28;1013;-72
2022/03/03 03:21:09;;;;;;;;;;;;;;;22.68;18.99;97309.00;5017658;28;1029;-72
2022/03/03 03:23:34;;;;;;;;;;;;;;;22.82;18.78;97302.72;5033450;28;1065;-72
2022/03/03 03:26:00;;;;;;;;;;;;;;;22.15;19.68;97294.19;5033618;28;1013;-72
2022/03/03 03:28:26;;;;;;;;;;;;;;;22.40;19.27;97304.53;5033528;28;1083;-72
2022/03/03 03:30:51;;;;;;;;;;;;;;;22.81;18.53;97301.16;5067949;28;1974;-72
2022/03/03 03:33:17;;;;;;;;;;;;;;;22.86;18.64;97306.22;5095998;28;1044;-72
2022/03/03 03:35:42;;;;;;;;;;;;;;;22.86;18.55;97306.22;5096040;28;964;-72
2022/03/03 03:38:07;;;;;;;;;;;;;;;22.52;18.93;97303.59;5096093;28;963;-72
2022/03/03 03:40:33;;;;;;;;;;;;;;;22.70;18.76;97305.72;5095819;28;972;-72
2022/03/03 03:42:58;;;;;;;;;;;;;;;23.56;17.78;97308.44;5095974;28;921;-72
2022/03/03 03:45:24;;;;;;;;;;;;;;;23.08;18.06;97308.16;5095583;28;984;-72
2022/03/03 03:47:49;;;;;;;;;;;;;;;23.02;18.49;97304.38;5095948;28;889;-72
2022/03/03 03:50:14;;;;;;;;;;;;;;;23.02;18.27;97316.50;5095403;28;966;-72
2022/03/03 03:52:40;;;;;;;;;;;;;;;22.72;18.92;97309.63;5095945;28;1906;-72
2022/03/03 03:55:06;;;;;;;;;;;;;;;22.91;18.50;97309.72;5095695;28;953;-72
2022/03/03 03:57:32;;;;;;;;;;;;;;;22.74;18.71;97312.81;5095608;28;1001;-72
2022/03/03 03:59:57;;;;;;;;;;;;;;;22.55;18.92;97314.00;5095968;28;958;-72
2022/03/03 04:02:23;;;;;;;;;;;;;;;22.93;18.79;97316.47;5095563;28;925;-72
2022/03/03 04:04:48;;;;;;;;;;;;;;;23.20;18.25;97321.38;5060034;28;975;-72
2022/03/03 04:07:14;;;;;;;;;;;;;;;23.19;18.46;97316.19;5095530;28;877;-72
2022/03/03 04:09:39;;;;;;;;;;;;;;;22.84;18.88;97317.22;5095701;28;1030;-72
2022/03/03 04:12:05;;;;;;;;;;;;;;;23.00;18.88;97318.22;5095650;28;1905;-72
2022/03/03 04:14:30;;;;;;;;;;;;;;;22.63;18.87;97320.94;5059453;28;1046;-72
2022/03/03 04:16:56;;;;;;;;;;;;;;;22.98;18.68;97312.22;5095647;28;1100;-72
2022/03/03 04:19:21;;;;;;;;;;;;;;;22.84;18.88;97310.75;5095506;28;911;-72
2022/03/03 04:21:48;;;;;;;;;;;;;;;23.06;18.66;97313.50;5095443;28;982;-72
2022/03/03 04:24:13;;;;;;;;;;;;;;;22.84;18.70;97325.72;5095122;28;1239;-72
2022/03/03 04:26:38;;;;;;;;;;;;;;;22.61;19.00;97320.66;5095089;28;917;-72
2022/03/03 04:29:04;;;;;;;;;;;;;;;22.46;19.18;97314.75;5095427;28;1127;-72
2022/03/03 04:31:29;;;;;;;;;;;;;;;22.43;19.32;97321.34;5095224;28;1902;-72
2022/03/03 04:33:56;;;;;;;;;;;;;;;22.59;19.13;97320.34;5095054;28;979;-72
2022/03/03 04:36:22;;;;;;;;;;;;;;;22.96;18.88;97323.28;5095028;28;981;-72
2022/03/03 04:38:50;;;;;;;;;;;;;;;22.76;18.77;97327.31;5095426;28;962;-72
2022/03/03 04:41:18;;;;;;;;;;;;;;;22.97;18.72;97324.84;5095455;28;959;-72
2022/03/03 04:43:44;;;;;;;;;;;;;;;22.69;19.18;97338.13;5095648;28;995;-72
2022/03/03 04:46:09;;;;;;;;;;;;;;;22.50;19.09;97331.63;5097426;28;932;-72
2022/03/03 04:48:35;;;;;;;;;;;;;;;22.51;19.05;97330.38;5099365;28;845;-72
2022/03/03 04:51:00;;;;;;;;;;;;;;;22.94;18.62;97331.44;5098765;28;1973;-72
2022/03/03 04:53:26;;;;;;;;;;;;;;;23.21;18.32;97328.66;5099085;28;983;-72
2022/03/03 04:55:51;;;;;;;;;;;;;;;23.11;18.50;97329.91;5080574;28;1322;-72
2022/03/03 04:58:17;;;;;;;;;;;;;;;22.59;19.15;97340.19;5099201;28;1097;-72
2022/03/03 05:00:42;;;;;;;;;;;;;;;22.92;18.67;97336.81;5099026;28;1057;-72
2022/03/03 05:03:08;;;;;;;;;;;;;;;22.36;19.26;97336.63;5098786;28;924;-72
2022/03/03 05:05:33;;;;;;;;;;;;;;;22.84;18.76;97337.06;5098910;28;1033;-72
2022/03/03 05:07:59;;;;;;;;;;;;;;;22.40;19.36;97339.31;5098508;28;973;-72
2022/03/03 05:10:24;;;;;;;;;;;;;;;22.56;19.26;97338.28;5062692;28;1041;-72
2022/03/03 05:12:50;;;;;;;;;;;;;;;22.35;19.53;97349.22;5099146;28;1975;-72
2022/03/03 05:15:16;;;;;;;;;;;;;;;22.26;19.45;97346.34;5098746;28;895;-72
2022/03/03 05:17:41;;;;;;;;;;;;;;;22.49;19.08;97347.06;5098434;28;964;-72
2022/03/03 05:20:07;;;;;;;;;;;;;;;22.25;19.39;97350.44;5098773;28;946;-73
2022/03/03 05:22:32;;;;;;;;;;;;;;;22.23;19.39;97347.28;5062151;28;1123;-72
2022/03/03 05:24:57;;;;;;;;;;;;;;;22.17;19.57;97351.94;5098296;28;864;-72
2022/03/03 05:27:23;;;;;;;;;;;;;;;21.93;19.64;97346.00;5098623;28;894;-72
2022/03/03 05:29:48;;;;;;;;;;;;;;;22.30;19.14;97347.00;5098522;28;1035;-72
2022/03/03 05:32:14;;;;;;;;;;;;;;;22.53;19.00;97359.81;5098346;28;1981;-72
2022/03/03 05:34:39;;;;;;;;;;;;;;;22.46;19.08;97348.78;5098158;28;996;-72
2022/03/03 05:37:05;;;;;;;;;;;;;;;21.90;19.68;97351.78;5098202;28;1049;-72
2022/03/03 05:39:31;;;;;;;;;;;;;;;21.88;19.80;97354.28;5097772;28;916;-72
2022/03/03 05:41:56;;;;;;;;;;;;;;;22.64;18.80;97359.41;5098011;28;978;-72
2022/03/03 05:44:22;;;;;;;;;;;;;;;23.15;18.36;97364.59;5098310;28;958;-72
2022/03/03 05:46:47;;;;;;;;;;;;;;;22.26;19.30;97363.34;5098013;28;922;-72
2022/03/03 05:49:13;;;;;;;;;;;;;;;21.71;20.04;97356.53;5098137;28;966;-72
2022/03/03 05:51:38;;;;;;;;;;;;;;;22.34;19.30;97364.66;5097819;28;1982;-72
2022/03/03 05:54:04;;;;;;;;;;;;;;;22.97;18.50;97370.25;5097827;28;923;-72
2022/03/03 05:56:32;;;;;;;;;;;;;;;23.20;18.17;97366.78;5044775;28;1072;-72
2022/03/03 05:58:58;;;;;;;;;;;;;;;22.96;18.36;97369.47;5079747;28;1024;-72
2022/03/03 06:01:24;;;;;;;;;;;;;;;22.92;18.48;97379.38;5097758;28;918;-72
2022/03/03 06:03:50;;;;;;;;;;;;;;;22.81;18.83;97385.47;5108343;28;1054;-72
2022/03/03 06:06:21;;;;;;;;;;;;;;;22.83;18.72;97394.28;5112368;28;1197;-72
2022/03/03 06:08:58;;;;;;;;;;;;;;;22.71;18.93;97395.97;5117908;28;1010;-72
2022/03/03 06:11:27;;;;;;;;;;;;;;;22.74;18.86;97402.75;5074669;28;1910;-72
2022/03/03 06:13:53;;;;;;;;;;;;;;;22.25;19.53;97392.94;5074618;28;1064;-72
2022/03/03 06:16:19;;;;;;;;;;;;;;;22.93;18.44;97404.44;5074878;28;969;-72
2022/03/03 06:18:45;;;;;;;;;;;;;;;22.44;19.31;97404.38;5074680;28;980;-72
2022/03/03 06:21:10;;;;;;;;;;;;;;;23.08;18.27;97411.09;5074647;28;1004;-72
2022/03/03 06:23:35;;;;;;;;;;;;;;;22.88;18.79;97405.81;5074761;28;951;-72
2022/03/03 06:26:05;;;;;;;;;;;;;;;22.96;18.48;97402.72;5074955;28;1039;-72
2022/03/03 06:28:31;;;;;;;;;;;;;;;22.87;18.74;97401.38;5074762;28;1038;-72
2022/03/03 06:30:56;;;;;;;;;;;;;;;22.87;18.75;97407.06;5024134;28;1922;-72
2022/03/03 06:33:22;;;;;;;;;;;;;;;22.90;18.50;97407.41;5074493;28;1370;-72
2022/03/03 06:35:47;;;;;;;;;;;;;;;22.78;18.83;97409.88;5069482;28;1244;-73
2022/03/03 06:38:13;;;;;;;;;;;;;;;22.76;19.06;97414.44;5054489;28;1388;-73
2022/03/03 06:40:38;;;;;;;;;;;;;;;22.92;18.90;97410.56;5054066;28;1023;-73
2022/03/03 06:43:04;;;;;;;;;;;;;;;22.78;18.85;97407.03;5056263;28;1036;-72
2022/03/03 06:45:29;;;;;;;;;;;;;;;23.30;18.33;97405.28;5037837;28;1029;-72
2022/03/03 06:47:55;;;;;;;;;;;;;;;23.12;18.40;97413.78;5056599;28;990;-72
2022/03/03 06:50:21;;;;;;;;;;;;;;;23.19;18.29;97407.78;5056212;28;1075;-73
2022/03/03 06:52:46;;;;;;;;;;;;;;;23.06;18.38;97404.31;5057316;28;1979;-72
2022/03/03 06:55:13;;;;;;;;;;;;;;;22.96;18.99;97412.00;5056639;28;1110;-72
2022/03/03 06:57:38;;;;;;;;;;;;;;;22.97;18.61;97404.28;5033645;28;1005;-73
2022/03/03 07:00:04;;;;;;;;;;;;;;;22.59;19.18;97413.91;5001044;28;984;-73
2022/03/03 07:02:30;;;;;;;;;;;;;;;22.76;18.97;97412.38;5033675;28;934;-72
2022/03/03 07:04:55;;;;;;;;;;;;;;;22.59;19.20;97409.03;5013997;28;1086;-72
2022/03/03 07:07:21;;;;;;;;;;;;;;;22.92;18.87;97414.19;4997492;28;1141;-73
2022/03/03 07:09:46;;;;;;;;;;;;;;;22.38;19.12;97415.50;5014227;28;996;-73
2022/03/03 07:12:12;;;;;;;;;;;;;;;22.59;19.11;97419.56;4997604;28;1906;-72
2022/03/03 07:14:38;;;;;;;;;;;;;;;22.66;19.00;97424.94;5013775;28;1051;-72
2022/03/03 07:17:05;;;;;;;;;;;;;;;22.97;18.61;97426.97;5014068;28;951;-72
2022/03/03 07:19:37;;;;;;;;;;;;;;;22.97;18.75;97432.66;5013954;28;989;-73
2022/03/03 07:22:02;;;;;;;;;;;;;;;22.65;19.25;97420.53;4974669;28;1022;-73
2022/03/03 07:24:32;;;;;;;;;;;;;;;23.31;18.46;97428.78;4974958;28;981;-73
2022/03/03 07:26:58;;;;;;;;;;;;;;;23.12;18.51;97428.75;4958810;28;856;-72
2022/03/03 07:29:25;;;;;;;;;;;;;;;22.78;18.83;97431.75;4990511;28;976;-72
2022/03/03 07:31:53;;;;;;;;;;;;;;;23.03;18.71;97440.06;4954940;29;1898;-73
2022/03/03 07:34:18;;;;;;;;;;;;;;;22.61;19.11;97439.72;4955547;29;945;-73
2022/03/03 07:36:43;;;;;;;;;;;;;;;22.74;19.08;97443.28;4935979;29;1077;-73
2022/03/03 07:39:10;;;;;;;;;;;;;;;22.31;19.64;97438.47;4936313;29;1120;-72
2022/03/03 07:41:35;;;;;;;;;;;;;;;22.59;19.40;97442.25;4901188;29;1054;-72
2022/03/03 07:44:01;;;;;;;;;;;;;;;22.37;19.53;97442.28;4917290;29;999;-72
2022/03/03 07:46:26;;;;;;;;;;;;;;;22.35;19.45;97442.75;4916997;29;985;-73
2022/03/03 07:48:53;;;;;;;;;;;;;;;22.25;19.52;97446.78;4916853;29;1073;-72
2022/03/03 07:51:22;;;;;;;;;;;;;;;22.31;19.76;97450.59;4932310;29;1914;-72
2022/03/03 07:53:47;;;;;;;;;;;;;;;22.23;19.84;97460.63;4932554;29;1014;-72
2022/03/03 07:56:16;;;;;;;;;;;;;;;21.87;19.89;97444.13;4935709;29;1027;-73
2022/03/03 07:58:42;;;;;;;;;;;;;;;21.77;20.40;97445.31;4916590;29;1012;-72
2022/03/03 08:01:08;;;;;;;;;;;;;;;22.53;19.11;97444.09;4931795;29;1014;-72
2022/03/03 08:03:33;;;;;;;;;;;;;;;22.65;19.10;97446.06;4950952;29;1065;-73
2022/03/03 08:05:59;;;;;;;;;;;;;;;22.21;19.73;97437.63;4954767;29;1032;-72
2022/03/03 08:08:25;;;;;;;;;;;;;;;21.96;19.86;97440.56;4938693;29;1077;-73
2022/03/03 08:10:51;;;;;;;;;;;;;;;22.27;19.54;97438.59;4955016;29;1907;-72
2022/03/03 08:13:17;;;;;;;;;;;;;;;22.84;19.14;97439.19;4958672;28;1049;-72
2022/03/03 08:15:43;;;;;;;;;;;;;;;23.07;18.63;97437.09;4996692;28;1194;-73
2022/03/03 08:18:09;;;;;;;;;;;;;;;22.06;20.00;97439.38;5013239;28;968;-72
2022/03/03 08:20:35;;;;;;;;;;;;;;;21.66;20.10;97439.22;4998137;28;1043;-72
2022/03/03 08:23:00;;;;;;;;;;;;;;;22.41;19.33;97442.16;5017241;28;1004;-72
2022/03/03 08:25:26;;;;;;;;;;;;;;;22.66;19.34;97447.63;5016898;28;1082;-72
2022/03/03 08:27:53;;;;;;;;;;;;;;;22.66;19.28;97446.84;5017264;28;1006;-73
2022/03/03 08:30:19;;;;;;;;;;;;;;;22.60;19.13;97450.28;5016956;28;1004;-73
2022/03/03 08:32:48;;;;;;;;;;;;;;;22.24;19.90;97453.72;5028552;28;1987;-72
2022/03/03 08:35:14;;;;;;;;;;;;;;;22.56;19.30;97451.69;4999685;28;993;-73
2022/03/03 08:37:41;;;;;;;;;;;;;;;22.52;19.39;97451.03;5017074;28;1112;-73
2022/03/03 08:40:07;;;;;;;;;;;;;;;22.42;19.48;97450.19;5016705;28;971;-73
2022/03/03 08:42:37;;;;;;;;;;;;;;;22.85;19.23;97454.97;5017155;28;1121;-72
2022/03/03 08:45:03;;;;;;;;;;;;;;;22.92;19.23;97453.13;5016644;28;983;-72
2022/03/03 08:47:29;;;;;;;;;;;;;;;22.93;18.94;97449.03;5017087;28;1049;-73
2022/03/03 08:49:58;;;;;;;;;;;;;;;22.59;19.34;97447.94;5016853;28;961;-72
2022/03/03 08:52:23;;;;;;;;;;;;;;;22.67;19.33;97437.88;5016178;28;1911;-72
2022/03/03 08:54:49;;;;;;;;;;;;;;;22.55;19.57;97441.59;5016534;28;1025;-72
2022/03/03 08:57:14;;;;;;;;;;;;;;;22.50;19.51;97445.03;5016418;28;910;-72
2022/03/03 08:59:40;;;;;;;;;;;;;;;22.94;19.04;97442.09;5016514;28;985;-72
2022/03/03 09:02:05;;;;;;;;;;;;;;;22.85;18.91;97443.63;5016429;28;994;-72
2022/03/03 09:04:30;;;;;;;;;;;;;;;22.96;18.98;97439.59;5032834;28;966;-72
2022/03/03 09:06:56;;;;;;;;;;;;;;;22.92;18.80;97436.91;5049197;28;1089;-73
2022/03/03 09:09:21;;;;;;;;;;;;;;;22.57;19.29;97439.09;5016546;28;968;-73
2022/03/03 09:11:47;;;;;;;;;;;;;;;23.25;18.87;97434.28;5019102;28;1973;-72
2022/03/03 09:14:12;;;;;;;;;;;;;;;23.63;18.29;97444.50;5019343;28;1038;-73
2022/03/03 09:16:38;;;;;;;;;;;;;;;22.84;18.95;97442.03;5038984;28;994;-73
2022/03/03 09:19:03;;;;;;;;;;;;;;;22.91;18.96;97445.88;5057141;28;1083;-72
2022/03/03 09:21:29;;;;;;;;;;;;;;;23.12;18.90;97439.31;5057997;28;1080;-73
2022/03/03 09:23:54;;;;;;;;;;;;;;;23.27;18.55;97440.31;5056945;28;905;-73
2022/03/03 09:26:20;;;;;;;;;;;;;;;22.90;18.88;97442.25;5058161;28;935;-72
2022/03/03 09:28:45;;;;;;;;;;;;;;;23.13;18.78;97452.25;5058288;28;1026;-73
2022/03/03 09:31:11;;;;;;;;;;;;;;;22.87;19.46;97441.09;5057766;28;2398;-72
2022/03/03 09:33:36;;;;;;;;;;;;;;;22.97;19.16;97444.00;5077369;28;1028;-72
2022/03/03 09:36:02;;;;;;;;;;;;;;;22.86;19.38;97455.75;5078213;28;927;-73
2022/03/03 09:38:27;;;;;;;;;;;;;;;22.92;19.08;97444.63;5078062;28;868;-72
2022/03/03 09:40:53;;;;;;;;;;;;;;;22.98;19.06;97451.25;5077892;28;1057;-73
2022/03/03 09:43:21;;;;;;;;;;;;;;;23.22;18.88;97442.97;5019333;28;953;-72
2022/03/03 09:45:47;;;;;;;;;;;;;;;22.75;19.46;97444.84;5015129;28;962;-73
2022/03/03 09:48:12;;;;;;;;;;;;;;;22.91;19.13;97445.88;4999085;28;977;-73
2022/03/03 09:50:38;;;;;;;;;;;;;;;22.83;18.95;97446.13;5015744;28;1015;-72
2022/03/03 09:53:10;;;;;;;;;;;;;;;22.94;19.00;97444.94;5015504;28;1913;-73
2022/03/03 09:55:36;;;;;;;;;;;;;;;22.97;18.81;97432.66;5015602;28;1109;-72
2022/03/03 09:58:02;;;;;;;;;;;;;;;22.93;18.90;97434.84;4995531;28;991;-73
2022/03/03 10:00:33;;;;;;;;;;;;;;;22.91;19.07;97434.53;4995742;28;1050;-73
2022/03/03 10:03:09;;;;;;;;;;;;;;;22.70;19.27;97436.16;4995704;28;1024;-72
2022/03/03 10:05:39;;;;;;;;;;;;;;;22.98;19.14;97435.03;4976069;28;1006;-73
2022/03/03 10:08:06;;;;;;;;;;;;;;;23.13;18.73;97429.53;4975755;28;985;-73
2022/03/03 10:10:31;;;;;;;;;;;;;;;22.85;19.24;97426.59;4936992;29;1084;-72
2022/03/03 10:12:57;;;;;;;;;;;;;;;22.77;19.17;97424.53;4918536;29;1923;-72
2022/03/03 10:15:26;;;;;;;;;;;;;;;22.74;19.28;97423.41;4869077;29;2088;-73
2022/03/03 10:17:57;;;;;;;;;;;;;;;22.38;19.48;97420.38;4916266;29;1042;-72
2022/03/03 10:20:22;;;;;;;;;;;;;;;22.14;20.01;97420.13;4918655;29;1027;-72
2022/03/03 10:22:57;;;;;;;;;;;;;;;22.64;19.56;97421.81;4918423;29;1018;-72
2022/03/03 10:25:30;;;;;;;;;;;;;;;22.66;19.13;97419.28;4918447;29;1167;-72
2022/03/03 10:27:55;;;;;;;;;;;;;;;22.43;19.65;97416.94;4880747;29;1153;-73
2022/03/03 10:30:21;;;;;;;;;;;;;;;22.31;19.79;97425.09;4861864;29;1104;-72
2022/03/03 10:32:47;;;;;;;;;;;;;;;22.32;19.56;97412.50;4846603;29;1992;-73
2022/03/03 10:35:14;;;;;;;;;;;;;;;22.27;19.55;97415.94;4876120;29;1532;-72
2022/03/03 10:37:39;;;;;;;;;;;;;;;22.10;19.95;97411.72;4881609;29;969;-72
2022/03/03 10:40:05;;;;;;;;;;;;;;;22.04;19.93;97413.56;4880479;29;1101;-72
2022/03/03 10:42:31;;;;;;;;;;;;;;;22.50;19.50;97405.34;4899794;29;1036;-72
2022/03/03 10:45:10;;;;;;;;;;;;;;;22.56;19.43;97409.16;4898777;29;1018;-72
2022/03/03 10:47:36;;;;;;;;;;;;;;;22.41;19.49;97396.81;4952512;29;983;-73
2022/03/03 10:50:02;;;;;;;;;;;;;;;22.14;19.85;97398.22;4962557;28;1188;-72
2022/03/03 10:52:32;;;;;;;;;;;;;;;21.93;19.98;97407.50;4975425;28;1914;-73
2022/03/03 10:55:01;;;;;;;;;;;;;;;22.88;19.09;97397.31;4936421;29;1027;-72
2022/03/03 10:57:33;;;;;;;;;;;;;;;23.66;18.01;97392.41;4936957;29;962;-73
2022/03/03 10:59:59;;;;;;;;;;;;;;;22.23;19.31;97403.16;4972492;28;1045;-72
2022/03/03 11:02:26;;;;;;;;;;;;;;;21.49;20.55;97396.16;5011470;28;1039;-73
2022/03/03 11:04:51;;;;;;;;;;;;;;;22.47;19.58;97397.75;5013841;28;1048;-72
2022/03/03 11:07:18;;;;;;;;;;;;;;;22.62;18.95;97398.78;5032895;28;1016;-72
2022/03/03 11:09:44;;;;;;;;;;;;;;;22.49;19.54;97392.44;5017514;28;1031;-72
2022/03/03 11:12:09;;;;;;;;;;;;;;;22.70;18.95;97396.47;5033916;28;1910;-73
2022/03/03 11:14:35;;;;;;;;;;;;;;;22.59;19.24;97396.88;4994239;28;1004;-73
2022/03/03 11:17:00;;;;;;;;;;;;;;;22.72;18.95;97394.72;4974512;28;961;-72
2022/03/03 11:19:25;;;;;;;;;;;;;;;22.38;19.35;97398.50;4974636;28;1023;-73
2022/03/03 11:21:51;;;;;;;;;;;;;;;22.48;19.08;97390.84;4974773;28;1030;-73
2022/03/03 11:24:17;;;;;;;;;;;;;;;22.62;18.90;97393.88;4974667;28;956;-72
2022/03/03 11:26:42;;;;;;;;;;;;;;;22.55;19.22;97393.41;4955439;29;985;-73
2022/03/03 11:29:11;;;;;;;;;;;;;;;22.80;18.93;97393.19;4939525;29;994;-73
2022/03/03 11:31:37;;;;;;;;;;;;;;;22.55;19.08;97385.69;4954800;29;1910;-73
2022/03/03 11:34:21;;;;;;;;;;;;;;;22.69;18.92;97394.84;4955347;29;1024;-73
2022/03/03 11:36:46;;;;;;;;;;;;;;;22.44;19.15;97391.00;4916918;29;1000;-73
2022/03/03 11:39:30;;;;;;;;;;;;;;;22.17;19.45;97385.97;4901568;29;1094;-73
2022/03/03 11:41:56;;;;;;;;;;;;;;;22.59;19.15;97383.50;4916993;29;994;-72
2022/03/03 11:44:29;;;;;;;;;;;;;;;22.07;19.88;97378.63;4879395;29;1318;-73
2022/03/03 11:46:56;;;;;;;;;;;;;;;22.74;19.21;97383.72;4918912;29;1021;-73
2022/03/03 11:49:25;;;;;;;;;;;;;;;22.70;19.02;97391.56;4955286;29;1083;-72
2022/03/03 11:51:51;;;;;;;;;;;;;;;23.05;18.46;97382.84;4916415;29;1911;-72
2022/03/03 11:54:16;;;;;;;;;;;;;;;22.71;18.68;97389.53;4916587;29;1016;-72
2022/03/03 11:57:06;;;;;;;;;;;;;;;22.79;18.79;97387.97;4918916;28;959;-73
2022/03/03 11:59:32;;;;;;;;;;;;;;;22.83;18.54;97388.59;4936084;29;1020;-72
2022/03/03 12:01:57;;;;;;;;;;;;;;;22.94;18.74;97391.03;4951861;29;1067;-72
2022/03/03 12:04:26;;;;;;;;;;;;;;;22.74;18.97;97397.91;4935909;29;1012;-72
2022/03/03 12:06:52;;;;;;;;;;;;;;;23.20;18.28;97389.50;4940322;28;1045;-72
2022/03/03 12:09:21;;;;;;;;;;;;;;;23.17;18.42;97396.13;4990191;28;1322;-72
2022/03/03 12:11:46;;;;;;;;;;;;;;;23.18;18.43;97397.72;4974439;28;1910;-72
2022/03/03 12:14:29;;;;;;;;;;;;;;;22.62;18.93;97390.28;4975228;28;982;-73
2022/03/03 12:16:55;;;;;;;;;;;;;;;22.34;19.08;97393.00;5013266;28;1029;-73
2022/03/03 12:19:21;;;;;;;;;;;;;;;22.73;18.98;97396.28;5013254;28;1158;-73
2022/03/03 12:21:48;;;;;;;;;;;;;;;22.90;18.81;97393.22;5016188;28;1035;-73
2022/03/03 12:24:13;;;;;;;;;;;;;;;23.09;18.38;97395.63;5013195;28;991;-72
2022/03/03 12:26:51;;;;;;;;;;;;;;;23.15;18.70;97392.97;5013273;28;1026;-72
2022/03/03 12:29:35;;;;;;;;;;;;;;;22.91;18.50;97394.81;5013214;28;1084;-73
2022/03/03 12:32:29;;;;;;;;;;;;;;;23.02;18.42;97403.66;5029015;28;1965;-73
2022/03/03 12:35:00;;;;;;;;;;;;;;;22.73;18.69;97404.81;4977282;28;1882;-72
2022/03/03 12:37:26;;;;;;;;;;;;;;;23.39;18.02;97399.63;4994631;28;1026;-72
2022/03/03 12:39:52;;;;;;;;;;;;;;;22.50;19.36;97399.69;5013185;28;1036;-73
2022/03/03 12:42:21;;;;;;;;;;;;;;;22.78;19.03;97406.25;4981292;28;1433;-73
2022/03/03 12:45:07;;;;;;;;;;;;;;;23.31;18.41;97400.41;4967752;28;1503;-73
2022/03/03 12:47:34;;;;;;;;;;;;;;;22.60;19.21;97393.59;4958184;28;1033;-73
2022/03/03 12:50:03;;;;;;;;;;;;;;;22.98;18.44;97405.88;4974047;28;1068;-72
2022/03/03 12:52:29;;;;;;;;;;;;;;;22.93;18.69;97397.97;4973790;28;1977;-72
2022/03/03 12:54:56;;;;;;;;;;;;;;;22.84;18.91;97396.63;4973526;28;1100;-72
2022/03/03 12:57:30;;;;;;;;;;;;;;;22.66;19.09;97407.94;4935217;29;1003;-72